createdAt,value
2017-07-17T00:00:19.051Z,9.88
2017-07-17T00:02:46.529Z,10.45
2017-07-17T00:05:14.789Z,10.55
2017-07-17T00:07:42.266Z,10.60
2017-07-17T00:10:09.800Z,10.20
2017-07-17T00:12:37.259Z,9.73
2017-07-17T00:15:04.721Z,10.75
2017-07-17T00:17:32.164Z,10.10
2017-07-17T00:19:59.607Z,11.52
2017-07-17T00:22:27.090Z,11.38
2017-07-17T00:24:54.647Z,10.50
2017-07-17T00:27:22.089Z,11.73
2017-07-17T00:29:49.551Z,10.50
2017-07-17T00:32:17.015Z,10.60
2017-07-17T00:34:44.455Z,11.10
2017-07-17T00:37:11.929Z,10.45
2017-07-17T00:39:39.403Z,10.02
2017-07-17T00:42:06.851Z,11.00
2017-07-17T00:44:34.319Z,11.35
2017-07-17T00:47:01.843Z,11.25
2017-07-17T00:49:29.368Z,10.82
2017-07-17T00:51:56.792Z,11.40
2017-07-17T00:54:25.016Z,11.07
2017-07-17T00:56:52.455Z,11.70
2017-07-17T00:59:19.935Z,11.50
2017-07-17T01:01:47.380Z,12.07
2017-07-17T01:04:14.856Z,11.00
2017-07-17T01:06:42.311Z,10.25
2017-07-17T01:09:09.791Z,11.50
2017-07-17T01:11:37.350Z,11.05
2017-07-17T01:14:04.886Z,11.57
2017-07-17T01:16:32.351Z,10.93
2017-07-17T01:18:59.836Z,10.52
2017-07-17T01:21:28.090Z,11.30
2017-07-17T01:23:55.532Z,12.10
2017-07-17T01:26:22.965Z,11.23
2017-07-17T01:28:50.443Z,12.45
2017-07-17T01:31:17.900Z,10.93
2017-07-17T01:33:45.371Z,11.00
2017-07-17T01:36:12.820Z,11.45
2017-07-17T01:38:40.280Z,11.90
2017-07-17T01:41:07.826Z,11.30
2017-07-17T01:43:35.287Z,11.65
2017-07-17T01:46:02.718Z,11.40
2017-07-17T01:48:30.166Z,11.12
2017-07-17T01:50:57.649Z,11.40
2017-07-17T01:53:25.088Z,12.37
2017-07-17T01:55:52.533Z,11.88
2017-07-17T01:58:20.023Z,12.50
2017-07-17T02:00:47.499Z,12.68
2017-07-17T02:03:15.355Z,13.07
2017-07-17T02:05:42.794Z,13.18
2017-07-17T02:08:10.283Z,13.10
2017-07-17T02:10:37.754Z,12.32
2017-07-17T02:13:05.188Z,12.93
2017-07-17T02:15:32.631Z,14.27
2017-07-17T02:18:00.083Z,13.40
2017-07-17T02:20:27.531Z,13.20
2017-07-17T02:22:54.998Z,13.88
2017-07-17T02:25:22.469Z,13.50
2017-07-17T02:27:49.905Z,13.45
2017-07-17T02:30:17.450Z,13.00
2017-07-17T02:32:44.942Z,12.77
2017-07-17T02:35:12.390Z,12.77
2017-07-17T02:37:39.950Z,12.95
2017-07-17T02:40:07.395Z,13.20
2017-07-17T02:42:34.903Z,13.52
2017-07-17T02:45:02.399Z,14.18
2017-07-17T02:47:29.859Z,13.38
2017-07-17T02:49:57.304Z,14.65
2017-07-17T02:52:24.754Z,13.50
2017-07-17T02:54:52.259Z,14.18
2017-07-17T02:57:20.506Z,14.65
2017-07-17T02:59:47.954Z,13.43
2017-07-17T03:02:15.398Z,14.45
2017-07-17T03:04:42.875Z,13.20
2017-07-17T03:07:10.327Z,13.25
2017-07-17T03:09:37.763Z,12.88
2017-07-17T03:12:05.203Z,13.65
2017-07-17T03:14:32.749Z,13.85
2017-07-17T03:17:00.255Z,14.70
2017-07-17T03:19:27.735Z,13.80
2017-07-17T03:21:55.350Z,14.27
2017-07-17T03:24:22.806Z,14.80
2017-07-17T03:26:50.334Z,13.80
2017-07-17T03:29:18.546Z,13.35
2017-07-17T03:31:46.039Z,14.10
2017-07-17T03:34:13.597Z,14.48
2017-07-17T03:36:41.039Z,13.95
2017-07-17T03:39:08.487Z,14.15
2017-07-17T03:41:35.925Z,14.60
2017-07-17T03:44:03.434Z,13.50
2017-07-17T03:46:30.892Z,13.65
2017-07-17T03:48:58.359Z,13.18
2017-07-17T03:51:25.851Z,13.88
2017-07-17T03:53:53.291Z,13.10
2017-07-17T03:56:20.738Z,13.38
2017-07-17T03:58:48.193Z,14.03
2017-07-17T04:01:15.723Z,14.73
2017-07-17T04:03:43.256Z,14.57
2017-07-17T04:06:10.703Z,13.73
2017-07-17T04:08:38.163Z,14.87
2017-07-17T04:11:05.648Z,14.07
2017-07-17T04:13:33.090Z,13.15
2017-07-17T04:16:00.561Z,14.20
2017-07-17T04:18:27.995Z,14.00
2017-07-17T04:20:55.459Z,14.60
2017-07-17T04:23:22.913Z,13.98
2017-07-17T04:25:50.359Z,14.15
2017-07-17T04:28:17.916Z,13.80
2017-07-17T04:30:45.382Z,13.80
2017-07-17T04:33:12.838Z,14.70
2017-07-17T04:35:40.275Z,14.32
2017-07-17T04:38:07.727Z,14.93
2017-07-17T04:40:35.218Z,15.47
2017-07-17T04:43:02.763Z,15.55
2017-07-17T04:45:30.221Z,14.30
2017-07-17T04:47:57.669Z,15.65
2017-07-17T04:50:25.119Z,14.85
2017-07-17T04:52:52.560Z,15.30
2017-07-17T04:55:20.069Z,15.10
2017-07-17T04:57:47.615Z,14.70
2017-07-17T05:00:15.171Z,14.13
2017-07-17T05:02:42.618Z,13.40
2017-07-17T05:05:10.066Z,13.07
2017-07-17T05:10:12.128Z,12.95
2017-07-17T05:12:39.599Z,12.95
2017-07-17T05:15:07.036Z,13.30
2017-07-17T05:17:34.482Z,11.60
2017-07-17T05:20:01.990Z,11.18
2017-07-17T05:22:29.426Z,10.73
2017-07-17T05:24:56.895Z,10.05
2017-07-17T05:27:24.592Z,9.73
2017-07-17T05:29:52.103Z,9.90
2017-07-17T05:32:19.586Z,10.50
2017-07-17T05:34:47.019Z,9.35
2017-07-17T05:37:15.273Z,9.90
2017-07-17T05:39:42.731Z,10.25
2017-07-17T05:42:10.203Z,7.90
2017-07-17T05:44:37.662Z,8.20
2017-07-17T05:47:05.226Z,8.05
2017-07-17T05:49:32.695Z,8.50
2017-07-17T05:52:00.327Z,8.02
2017-07-17T05:54:27.820Z,7.90
2017-07-17T05:56:55.384Z,7.50
2017-07-17T05:59:22.825Z,7.45
2017-07-17T06:01:50.383Z,7.90
2017-07-17T06:04:17.819Z,7.57
2017-07-17T06:06:45.306Z,6.82
2017-07-17T06:09:12.739Z,6.70
2017-07-17T06:11:40.176Z,5.40
2017-07-17T06:14:07.735Z,5.62
2017-07-17T06:16:35.221Z,5.87
2017-07-17T06:19:02.636Z,3.80
2017-07-17T06:21:30.078Z,4.20
2017-07-17T06:23:57.679Z,3.87
2017-07-17T06:26:25.171Z,3.47
2017-07-17T06:28:53.421Z,3.50
2017-07-17T06:31:20.892Z,3.80
2017-07-17T06:33:48.377Z,3.17
2017-07-17T06:36:15.896Z,3.90
2017-07-17T06:38:43.368Z,3.25
2017-07-17T06:41:10.815Z,3.00
2017-07-17T06:43:38.350Z,2.90
2017-07-17T06:46:05.887Z,3.20
2017-07-17T06:48:33.480Z,3.03
2017-07-17T06:51:00.926Z,3.12
2017-07-17T06:53:28.384Z,2.60
2017-07-17T06:55:55.847Z,2.55
2017-07-17T06:58:23.351Z,2.20
2017-07-17T07:00:50.835Z,2.10
2017-07-17T07:03:18.319Z,2.00
2017-07-17T07:05:45.775Z,2.83
2017-07-17T07:08:13.303Z,2.60
2017-07-17T07:10:40.795Z,2.42
2017-07-17T07:13:08.259Z,1.90
2017-07-17T07:15:35.792Z,2.15
2017-07-17T07:18:03.247Z,2.40
2017-07-17T07:20:30.686Z,2.50
2017-07-17T07:22:58.139Z,1.90
2017-07-17T07:25:25.585Z,2.30
2017-07-17T07:27:53.062Z,2.40
2017-07-17T07:30:20.621Z,2.10
2017-07-17T07:32:48.116Z,2.23
2017-07-17T07:35:15.845Z,2.05
2017-07-17T07:37:43.283Z,1.80
2017-07-17T07:40:10.775Z,1.90
2017-07-17T07:42:38.220Z,1.93
2017-07-17T07:45:05.675Z,2.00
2017-07-17T07:47:33.228Z,2.05
2017-07-17T07:50:00.692Z,1.70
2017-07-17T07:52:28.140Z,1.80
2017-07-17T07:54:55.611Z,2.10
2017-07-17T07:57:23.084Z,2.10
2017-07-17T07:59:50.667Z,2.00
2017-07-17T08:02:18.169Z,1.80
2017-07-17T08:04:45.689Z,1.70
2017-07-17T08:07:13.112Z,1.55
2017-07-17T08:09:40.663Z,2.08
2017-07-17T08:12:08.900Z,1.70
2017-07-17T08:14:36.359Z,2.00
2017-07-17T08:17:03.794Z,1.70
2017-07-17T08:19:31.245Z,2.00
2017-07-17T08:21:58.703Z,1.73
2017-07-17T08:24:26.156Z,1.70
2017-07-17T08:26:53.698Z,2.00
2017-07-17T08:29:21.115Z,1.90
2017-07-17T08:31:49.576Z,2.15
2017-07-17T08:34:17.795Z,2.10
2017-07-17T08:36:45.284Z,2.70
2017-07-17T08:39:12.747Z,1.67
2017-07-17T08:41:40.207Z,2.10
2017-07-17T08:44:07.643Z,2.40
2017-07-17T08:46:35.160Z,2.10
2017-07-17T08:49:03.351Z,2.00
2017-07-17T08:51:30.799Z,2.30
2017-07-17T08:53:58.558Z,2.50
2017-07-17T08:56:25.978Z,2.10
2017-07-17T08:58:53.540Z,1.70
2017-07-17T09:01:20.963Z,2.17
2017-07-17T09:03:49.172Z,2.00
2017-07-17T09:06:16.655Z,2.45
2017-07-17T09:08:44.209Z,2.00
2017-07-17T09:11:11.686Z,2.08
2017-07-17T09:13:39.130Z,1.80
2017-07-17T09:16:06.588Z,2.10
2017-07-17T09:18:34.040Z,1.70
2017-07-17T09:21:01.499Z,1.80
2017-07-17T09:23:28.954Z,2.05
2017-07-17T09:25:56.505Z,1.90
2017-07-17T09:28:23.944Z,1.73
2017-07-17T09:30:51.523Z,1.90
2017-07-17T09:33:18.991Z,1.70
2017-07-17T09:35:46.610Z,1.90
2017-07-17T09:38:14.034Z,1.42
2017-07-17T09:40:42.344Z,1.67
2017-07-17T09:43:09.885Z,1.77
2017-07-17T09:45:37.390Z,2.05
2017-07-17T09:48:04.824Z,1.70
2017-07-17T09:50:32.320Z,1.42
2017-07-17T09:52:59.795Z,2.10
2017-07-17T09:55:28.002Z,1.70
2017-07-17T09:57:55.496Z,1.73
2017-07-17T10:00:23.019Z,1.70
2017-07-17T10:02:50.488Z,1.65
2017-07-17T10:05:17.942Z,1.85
2017-07-17T10:07:45.422Z,1.90
2017-07-17T10:10:12.880Z,2.10
2017-07-17T10:12:40.342Z,1.62
2017-07-17T10:15:07.801Z,1.70
2017-07-17T10:17:35.242Z,2.35
2017-07-17T10:20:02.767Z,2.00
2017-07-17T10:22:30.263Z,1.70
2017-07-17T10:24:57.838Z,2.00
2017-07-17T10:27:25.375Z,1.80
2017-07-17T10:29:56.023Z,1.80
2017-07-17T10:32:23.443Z,1.90
2017-07-17T10:34:50.901Z,1.80
2017-07-17T10:37:18.328Z,2.10
2017-07-17T10:39:45.833Z,2.10
2017-07-17T10:42:13.289Z,1.90
2017-07-17T10:44:40.834Z,1.50
2017-07-17T10:47:08.407Z,1.55
2017-07-17T10:49:35.863Z,1.60
2017-07-17T10:52:03.386Z,1.60
2017-07-17T10:54:30.826Z,2.25
2017-07-17T10:56:58.317Z,1.80
2017-07-17T10:59:25.800Z,1.45
2017-07-17T11:01:53.287Z,1.70
2017-07-17T11:04:20.781Z,1.70
2017-07-17T11:06:48.226Z,1.60
2017-07-17T11:09:15.743Z,1.60
2017-07-17T11:11:43.972Z,1.50
2017-07-17T11:14:11.573Z,1.35
2017-07-17T11:16:39.001Z,1.50
2017-07-17T11:19:07.407Z,1.40
2017-07-17T11:21:35.651Z,1.20
2017-07-17T11:24:03.113Z,1.50
2017-07-17T11:26:30.741Z,1.35
2017-07-17T11:28:58.255Z,2.05
2017-07-17T11:31:26.502Z,1.50
2017-07-17T11:33:53.968Z,1.50
2017-07-17T11:36:21.426Z,1.50
2017-07-17T11:38:48.967Z,1.30
2017-07-17T11:41:16.439Z,1.40
2017-07-17T11:56:30.328Z,1.20
2017-07-17T11:58:59.721Z,1.00
2017-07-17T12:01:28.098Z,1.20
2017-07-17T12:03:56.671Z,1.20
2017-07-17T12:09:05.011Z,1.10
2017-07-17T12:11:32.591Z,1.15
2017-07-17T12:14:00.037Z,1.40
2017-07-17T12:16:27.616Z,1.27
2017-07-17T12:18:55.050Z,1.30
2017-07-17T12:21:22.489Z,1.10
2017-07-17T12:23:49.964Z,1.10
2017-07-17T12:26:17.541Z,1.00
2017-07-17T12:28:45.006Z,1.10
2017-07-17T12:31:12.626Z,0.90
2017-07-17T12:33:40.082Z,1.40
2017-07-17T12:36:07.509Z,1.58
2017-07-17T12:38:34.935Z,1.00
2017-07-17T12:41:02.486Z,1.00
2017-07-17T12:43:29.926Z,1.20
2017-07-17T12:45:57.465Z,1.30
2017-07-17T12:48:24.906Z,1.05
2017-07-17T12:50:52.451Z,1.20
2017-07-17T12:53:20.683Z,1.20
2017-07-17T12:55:48.166Z,1.30
2017-07-17T12:58:15.634Z,1.60
2017-07-17T13:00:43.850Z,1.60
2017-07-17T13:03:11.347Z,1.30
2017-07-17T13:05:38.899Z,1.20
2017-07-17T13:08:06.463Z,1.20
2017-07-17T13:10:33.905Z,1.80
2017-07-17T13:13:01.437Z,1.40
2017-07-17T13:15:28.874Z,1.70
2017-07-17T13:17:56.321Z,2.35
2017-07-17T13:20:23.918Z,1.80
2017-07-17T13:22:51.370Z,1.60
2017-07-17T13:25:18.845Z,1.80
2017-07-17T13:27:46.288Z,1.67
2017-07-17T13:30:13.751Z,2.00
2017-07-17T13:32:41.215Z,1.70
2017-07-17T13:35:08.741Z,1.87
2017-07-17T13:37:36.214Z,1.80
2017-07-17T13:40:03.660Z,1.67
2017-07-17T13:42:31.136Z,1.70
2017-07-17T13:44:58.566Z,1.90
2017-07-17T13:47:26.069Z,1.60
2017-07-17T13:49:53.517Z,1.70
2017-07-17T13:52:21.084Z,1.60
2017-07-17T13:54:48.610Z,1.50
2017-07-17T13:57:16.062Z,1.37
2017-07-17T13:59:43.531Z,1.52
2017-07-17T14:02:10.984Z,1.73
2017-07-17T14:04:38.474Z,1.70
2017-07-17T14:07:06.676Z,2.00
2017-07-17T14:09:34.114Z,1.70
2017-07-17T14:12:01.551Z,1.63
2017-07-17T14:14:29.261Z,2.00
2017-07-17T14:16:56.710Z,1.73
2017-07-17T14:19:24.224Z,1.90
2017-07-17T14:21:51.670Z,1.80
2017-07-17T14:24:19.155Z,1.90
2017-07-17T14:26:46.672Z,1.60
2017-07-17T14:29:14.242Z,1.73
2017-07-17T14:31:41.678Z,1.80
2017-07-17T14:34:09.150Z,1.70
2017-07-17T14:36:36.706Z,1.80
2017-07-17T14:39:04.165Z,1.60
2017-07-17T14:41:31.610Z,1.70
2017-07-17T14:43:59.179Z,1.92
2017-07-17T14:46:26.608Z,1.60
2017-07-17T14:48:54.071Z,1.95
2017-07-17T14:51:21.559Z,1.80
2017-07-17T14:53:49.154Z,1.67
2017-07-17T14:56:16.596Z,1.85
2017-07-17T14:58:44.832Z,1.90
2017-07-17T15:01:12.321Z,1.83
2017-07-17T15:03:39.846Z,1.80
2017-07-17T15:06:07.451Z,2.20
2017-07-17T15:08:35.679Z,1.92
2017-07-17T15:11:03.145Z,2.10
2017-07-17T15:13:30.576Z,2.00
2017-07-17T15:15:58.030Z,1.73
2017-07-17T15:18:25.514Z,1.60
2017-07-17T15:20:52.991Z,1.85
2017-07-17T15:23:20.523Z,1.60
2017-07-17T15:25:47.995Z,1.73
2017-07-17T15:28:15.425Z,1.67
2017-07-17T15:30:42.976Z,1.80
2017-07-17T15:33:10.460Z,1.60
2017-07-17T15:35:37.897Z,1.80
2017-07-17T15:38:05.343Z,1.58
2017-07-17T15:40:32.767Z,1.60
2017-07-17T15:43:00.252Z,1.40
2017-07-17T15:45:27.710Z,1.67
2017-07-17T15:47:55.179Z,1.67
2017-07-17T15:50:22.619Z,1.70
2017-07-17T15:52:50.078Z,1.60
2017-07-17T15:55:17.672Z,1.60
2017-07-17T15:57:45.151Z,1.60
2017-07-17T16:00:12.603Z,1.50
2017-07-17T16:02:40.115Z,1.80
2017-07-17T16:05:07.670Z,1.60
2017-07-17T16:07:35.183Z,2.20
2017-07-17T16:10:02.606Z,1.80
2017-07-17T16:12:30.034Z,1.83
2017-07-17T16:14:57.483Z,1.60
2017-07-17T16:17:24.946Z,1.42
2017-07-17T16:19:52.421Z,1.70
2017-07-17T16:22:19.895Z,1.60
2017-07-17T16:24:47.416Z,2.10
2017-07-17T16:27:14.893Z,1.80
2017-07-17T16:29:42.359Z,1.60
2017-07-17T16:32:09.889Z,2.08
2017-07-17T16:34:37.367Z,2.00
2017-07-17T16:37:04.838Z,2.50
2017-07-17T16:39:32.314Z,2.05
2017-07-17T16:42:00.574Z,2.08
2017-07-17T16:44:28.027Z,2.03
2017-07-17T16:46:55.557Z,2.20
2017-07-17T16:49:23.028Z,2.30
2017-07-17T16:51:50.492Z,2.50
2017-07-17T16:54:17.948Z,2.40
2017-07-17T16:56:45.422Z,2.30
2017-07-17T16:59:12.963Z,2.10
2017-07-17T17:01:40.535Z,2.12
2017-07-17T17:04:07.999Z,2.20
2017-07-17T17:06:36.209Z,2.10
2017-07-17T17:09:03.706Z,2.00
2017-07-17T17:11:31.151Z,2.00
2017-07-17T17:13:58.598Z,2.30
2017-07-17T17:16:26.092Z,2.40
2017-07-17T17:18:54.310Z,2.78
2017-07-17T17:21:21.799Z,2.70
2017-07-17T17:23:49.334Z,2.20
2017-07-17T17:26:16.828Z,2.17
2017-07-17T17:28:44.280Z,2.42
2017-07-17T17:31:11.755Z,2.62
2017-07-17T17:33:39.352Z,2.60
2017-07-17T17:36:06.923Z,2.33
2017-07-17T17:38:34.414Z,2.40
2017-07-17T17:41:01.856Z,2.80
2017-07-17T17:43:29.291Z,2.65
2017-07-17T17:45:56.750Z,2.35
2017-07-17T17:48:24.224Z,1.90
2017-07-17T17:50:51.679Z,2.45
2017-07-17T17:53:19.143Z,2.20
2017-07-17T17:55:46.624Z,1.95
2017-07-17T17:58:14.133Z,2.20
2017-07-17T18:00:41.621Z,2.67
2017-07-17T18:03:09.046Z,2.50
2017-07-17T18:05:36.550Z,2.80
2017-07-17T18:08:04.114Z,2.40
2017-07-17T18:10:32.385Z,2.30
2017-07-17T18:12:59.810Z,2.75
2017-07-17T18:15:27.245Z,2.45
2017-07-17T18:17:54.723Z,2.50
2017-07-17T18:20:22.263Z,3.05
2017-07-17T18:22:49.738Z,2.75
2017-07-17T18:25:17.203Z,2.70
2017-07-17T18:27:44.662Z,3.10
2017-07-17T18:30:12.099Z,2.80
2017-07-17T18:32:39.546Z,2.37
2017-07-17T18:35:07.030Z,3.50
2017-07-17T18:37:34.470Z,2.80
2017-07-17T18:40:01.913Z,3.22
2017-07-17T18:42:29.384Z,3.08
2017-07-17T18:44:56.827Z,3.10
2017-07-17T18:47:24.307Z,2.90
2017-07-17T18:49:51.796Z,3.10
2017-07-17T18:52:20.218Z,3.00
2017-07-17T18:54:47.798Z,3.22
2017-07-17T18:57:15.268Z,3.10
2017-07-17T18:59:42.683Z,3.30
2017-07-17T19:02:10.140Z,2.90
2017-07-17T19:04:37.597Z,2.95
2017-07-17T19:07:05.059Z,3.00
2017-07-17T19:09:32.495Z,3.40
2017-07-17T19:12:00.100Z,3.33
2017-07-17T19:14:27.544Z,3.55
2017-07-17T19:16:55.010Z,3.00
2017-07-17T19:19:22.454Z,2.72
2017-07-17T19:21:49.936Z,2.80
2017-07-17T19:24:17.556Z,3.30
2017-07-17T19:26:45.040Z,3.15
2017-07-17T19:29:12.494Z,3.30
2017-07-17T19:31:39.947Z,3.22
2017-07-17T19:34:07.486Z,3.10
2017-07-17T19:36:34.958Z,3.10
2017-07-17T19:39:02.432Z,3.15
2017-07-17T19:41:29.913Z,3.10
2017-07-17T19:43:57.427Z,3.40
2017-07-17T19:46:24.895Z,4.55
2017-07-17T19:48:52.362Z,4.10
2017-07-17T19:51:19.799Z,3.08
2017-07-17T19:53:47.242Z,3.73
2017-07-17T19:56:14.694Z,3.60
2017-07-17T19:58:42.193Z,3.60
2017-07-17T20:01:09.633Z,4.00
2017-07-17T20:03:37.192Z,3.70
2017-07-17T20:06:04.648Z,3.53
2017-07-17T20:08:32.090Z,3.50
2017-07-17T20:10:59.572Z,4.30
2017-07-17T20:13:27.040Z,3.85
2017-07-17T20:15:55.313Z,3.60
2017-07-17T20:18:22.800Z,3.10
2017-07-17T20:20:50.486Z,4.03
2017-07-17T20:23:17.933Z,3.30
2017-07-17T20:25:45.505Z,3.83
2017-07-17T20:28:13.015Z,4.22
2017-07-17T20:30:41.242Z,4.07
2017-07-17T20:33:08.683Z,4.10
2017-07-17T20:35:36.244Z,4.20
2017-07-17T20:38:03.755Z,4.47
2017-07-17T20:40:32.053Z,4.40
2017-07-17T20:42:59.487Z,4.70
2017-07-17T20:45:27.774Z,4.80
2017-07-17T20:47:56.200Z,5.10
2017-07-17T20:50:23.648Z,5.10
2017-07-17T20:52:51.162Z,5.40
2017-07-17T20:55:18.695Z,6.90
2017-07-17T20:57:46.162Z,4.93
2017-07-17T21:00:13.671Z,4.35
2017-07-17T21:02:41.441Z,5.00
2017-07-17T21:05:09.415Z,4.18
2017-07-17T21:07:37.476Z,3.37
2017-07-17T21:10:05.445Z,3.60
2017-07-17T21:12:34.335Z,3.72
2017-07-17T21:15:02.408Z,3.10
2017-07-17T21:17:29.912Z,3.72
2017-07-17T21:19:57.465Z,3.97
2017-07-17T21:22:24.923Z,3.77
2017-07-17T21:24:52.487Z,3.67
2017-07-17T21:27:20.760Z,3.50
2017-07-17T21:29:49.089Z,3.67
2017-07-17T21:32:16.568Z,3.30
2017-07-17T21:34:44.020Z,3.78
2017-07-17T21:37:11.466Z,3.70
2017-07-17T21:39:38.939Z,3.60
2017-07-17T21:42:06.412Z,4.20
2017-07-17T21:44:33.963Z,4.17
2017-07-17T21:47:01.538Z,3.75
2017-07-17T21:49:28.988Z,4.37
2017-07-17T21:51:56.544Z,3.80
2017-07-17T21:54:23.997Z,4.30
2017-07-17T21:56:51.426Z,4.20
2017-07-17T21:59:18.902Z,3.78
2017-07-17T22:01:46.347Z,4.07
2017-07-17T22:04:13.782Z,4.60
2017-07-17T22:06:41.376Z,4.15
2017-07-17T22:09:08.909Z,4.03
2017-07-17T22:11:36.339Z,4.60
2017-07-17T22:14:03.828Z,4.60
2017-07-17T22:16:31.277Z,3.75
2017-07-17T22:18:58.725Z,3.90
2017-07-17T22:21:26.198Z,4.35
2017-07-17T22:23:53.664Z,4.50
2017-07-17T22:26:21.116Z,4.85
2017-07-17T22:28:48.578Z,4.10
2017-07-17T22:31:16.032Z,4.62
2017-07-17T22:33:43.466Z,4.80
2017-07-17T22:36:10.960Z,5.40
2017-07-17T22:38:39.242Z,4.20
2017-07-17T22:41:06.677Z,5.03
2017-07-17T22:43:34.105Z,4.70
2017-07-17T22:46:01.543Z,3.95
2017-07-17T22:48:28.976Z,4.07
2017-07-17T22:50:57.229Z,4.45
2017-07-17T22:53:24.667Z,4.80
2017-07-17T22:55:52.101Z,4.78
2017-07-17T22:58:19.552Z,4.80
2017-07-17T23:00:47.033Z,4.60
2017-07-17T23:03:14.472Z,4.90
2017-07-17T23:05:41.943Z,3.87
2017-07-17T23:08:09.412Z,4.60
2017-07-17T23:10:36.877Z,4.45
2017-07-17T23:13:04.434Z,5.00
2017-07-17T23:15:31.862Z,4.90
2017-07-17T23:17:59.324Z,4.50
2017-07-17T23:20:27.424Z,4.63
2017-07-17T23:22:54.884Z,5.12
2017-07-17T23:25:22.426Z,5.00
2017-07-17T23:27:49.891Z,5.07
2017-07-17T23:30:17.432Z,4.40
2017-07-17T23:32:44.876Z,5.20
2017-07-17T23:35:12.351Z,4.70
2017-07-17T23:37:39.778Z,5.05
2017-07-17T23:40:07.282Z,5.65
2017-07-17T23:42:34.719Z,5.03
2017-07-17T23:45:02.274Z,9.27
2017-07-17T23:47:29.707Z,4.80
2017-07-17T23:49:57.224Z,4.72
2017-07-17T23:52:25.441Z,5.15
2017-07-17T23:54:52.870Z,4.40
2017-07-17T23:57:20.358Z,5.15
2017-07-17T23:59:47.791Z,5.03
